Time;durP1;ratioP1;P1;durP2;ratioP2;P2;SDS_P1;SDS_P2;PMS_P1;PMS_P2;Temp;Humidity;BMP_temperature;BMP_pressure;BME280_temperature;BME280_humidity;BME280_pressure;Samples;Min_cycle;Max_cycle;Signal;HPM_P1;HPM_P2
2023/10/18 00:01:42;;;;;;;1.50;1.20;;;7.90;98.20;;;;;;5014530;28;20519;-78
2023/10/18 00:04:10;;;;;;;1.53;1.30;;;7.90;98.20;;;;;;5031717;28;20474;-78
2023/10/18 00:06:39;;;;;;;1.50;1.27;;;7.90;98.20;;;;;;5019899;28;20973;-76
2023/10/18 00:11:48;;;;;;;1.50;1.20;;;7.90;98.20;;;;;;5015828;28;20465;-78
2023/10/18 00:14:14;;;;;;;1.50;1.20;;;7.90;98.20;;;;;;5031730;28;20466;-78
2023/10/18 00:16:41;;;;;;;1.50;1.30;;;7.90;98.20;;;;;;5017639;28;20489;-78
2023/10/18 00:19:08;;;;;;;1.53;1.30;;;7.90;98.20;;;;;;5032294;28;20463;-78
2023/10/18 00:21:35;;;;;;;1.50;1.20;;;7.90;98.20;;;;;;5018629;28;20479;-77
2023/10/18 00:24:04;;;;;;;1.50;1.20;;;7.90;98.20;;;;;;5036008;28;20459;-78
2023/10/18 00:26:30;;;;;;;1.50;1.27;;;8.00;98.20;;;;;;5017844;28;20565;-77
2023/10/18 00:28:57;;;;;;;1.50;1.20;;;8.00;98.20;;;;;;5039126;28;20463;-77
2023/10/18 00:31:27;;;;;;;1.50;1.20;;;8.00;98.20;;;;;;5019876;28;20479;-77
2023/10/18 00:33:53;;;;;;;1.57;1.40;;;8.00;98.20;;;;;;5029119;28;20962;-77
2023/10/18 00:36:20;;;;;;;1.50;1.20;;;8.00;98.20;;;;;;5018237;28;20553;-77
2023/10/18 00:38:48;;;;;;;1.50;1.20;;;7.90;98.20;;;;;;5038586;28;20463;-78
2023/10/18 00:41:21;;;;;;;1.50;1.30;;;7.90;98.20;;;;;;5018972;28;20475;-77
2023/10/18 00:43:52;;;;;;;1.50;1.20;;;7.90;98.20;;;;;;5041032;28;20459;-77
2023/10/18 00:46:19;;;;;;;1.50;1.23;;;7.90;98.20;;;;;;5019641;28;20546;-77
2023/10/18 00:48:46;;;;;;;1.53;1.30;;;7.90;98.20;;;;;;5039137;28;20471;-77
2023/10/18 00:51:16;;;;;;;1.50;1.20;;;7.90;98.20;;;;;;5019533;28;20478;-77
2023/10/18 00:53:43;;;;;;;1.53;1.30;;;7.90;98.20;;;;;;5040525;28;20458;-77
2023/10/18 00:56:12;;;;;;;1.60;1.50;;;7.90;98.20;;;;;;5019431;28;20482;-77
2023/10/18 00:58:40;;;;;;;1.50;1.30;;;7.90;98.20;;;;;;5041900;28;20464;-77
2023/10/18 01:01:09;;;;;;;1.50;1.20;;;7.90;98.20;;;;;;5021711;28;20475;-77
2023/10/18 01:03:38;;;;;;;1.60;1.30;;;7.90;98.20;;;;;;5034560;28;20498;-78
2023/10/18 01:06:06;;;;;;;1.50;1.20;;;7.90;98.20;;;;;;5010072;28;20461;-77
2023/10/18 01:08:37;;;;;;;1.50;1.20;;;7.90;98.20;;;;;;5034080;28;20465;-77
2023/10/18 01:11:06;;;;;;;1.50;1.20;;;7.90;98.20;;;;;;5018406;28;20482;-78
2023/10/18 01:13:36;;;;;;;1.50;1.30;;;7.90;98.20;;;;;;5043380;28;20475;-77
2023/10/18 01:16:07;;;;;;;1.50;1.20;;;7.90;98.20;;;;;;5021563;28;20624;-76
2023/10/18 01:18:34;;;;;;;1.50;1.20;;;7.90;98.20;;;;;;5039320;28;20464;-78
2023/10/18 01:21:13;;;;;;;1.70;1.50;;;7.90;98.20;;;;;;5019166;28;20490;-77
2023/10/18 01:23:41;;;;;;;1.53;1.23;;;7.90;98.20;;;;;;5035742;28;20843;-78
2023/10/18 01:26:13;;;;;;;1.50;1.20;;;7.80;98.20;;;;;;5019346;28;20469;-78
2023/10/18 01:28:40;;;;;;;1.50;1.20;;;7.80;98.20;;;;;;5038093;28;20456;-78
2023/10/18 01:31:07;;;;;;;1.50;1.20;;;7.80;98.20;;;;;;5020793;28;20672;-77
2023/10/18 01:33:43;;;;;;;1.50;1.30;;;7.80;98.20;;;;;;5042297;28;21001;-77
2023/10/18 01:36:13;;;;;;;1.50;1.20;;;7.80;98.20;;;;;;5019335;28;20917;-77
2023/10/18 01:38:42;;;;;;;1.50;1.27;;;7.80;98.20;;;;;;5039107;28;20467;-78
2023/10/18 01:41:13;;;;;;;1.50;1.20;;;7.80;98.20;;;;;;5019643;28;20473;-77
2023/10/18 01:43:43;;;;;;;1.50;1.30;;;7.80;98.20;;;;;;5041392;28;20463;-78
2023/10/18 01:46:13;;;;;;;1.50;1.20;;;7.80;98.20;;;;;;5018436;28;20636;-78
2023/10/18 01:48:40;;;;;;;1.50;1.20;;;7.80;98.20;;;;;;5039456;28;20459;-78
2023/10/18 01:51:09;;;;;;;1.50;1.20;;;7.70;98.20;;;;;;5019543;28;20484;-78
2023/10/18 01:53:37;;;;;;;1.50;1.20;;;7.70;98.20;;;;;;5039780;28;20456;-77
2023/10/18 01:56:04;;;;;;;1.50;1.30;;;7.70;98.20;;;;;;5020250;28;20459;-77
2023/10/18 01:58:32;;;;;;;1.50;1.20;;;7.70;98.20;;;;;;5039203;28;20491;-77
2023/10/18 02:01:01;;;;;;;1.50;1.23;;;7.70;98.20;;;;;;5017431;28;20486;-78
2023/10/18 02:03:28;;;;;;;1.50;1.23;;;7.70;98.20;;;;;;5027374;28;20543;-76
2023/10/18 02:05:56;;;;;;;1.50;1.30;;;7.60;98.20;;;;;;5019293;28;20459;-78
2023/10/18 02:08:23;;;;;;;1.50;1.20;;;7.60;98.20;;;;;;5040300;28;20490;-77
2023/10/18 02:10:51;;;;;;;1.50;1.20;;;7.60;98.20;;;;;;5010518;28;20484;-78
2023/10/18 02:13:18;;;;;;;3.87;3.57;;;7.60;98.20;;;;;;5035866;28;21068;-77
2023/10/18 02:15:48;;;;;;;1.50;1.20;;;7.60;98.20;;;;;;5025450;28;20456;-77
2023/10/18 02:18:15;;;;;;;1.53;1.30;;;7.60;98.20;;;;;;5015470;28;20487;-78
2023/10/18 02:20:50;;;;;;;1.53;1.20;;;7.60;98.20;;;;;;5028070;28;20492;-78
2023/10/18 02:23:17;;;;;;;1.50;1.20;;;7.60;98.20;;;;;;5023621;22;20531;-76
2023/10/18 02:25:44;;;;;;;1.50;1.23;;;7.60;98.20;;;;;;4999162;28;20948;-77
2023/10/18 02:28:23;;;;;;;1.50;1.20;;;7.60;98.20;;;;;;5007387;28;20484;-77
2023/10/18 02:30:56;;;;;;;1.50;1.30;;;7.60;98.20;;;;;;4989556;28;20548;-78
2023/10/18 02:33:34;;;;;;;1.50;1.20;;;7.60;98.20;;;;;;5011533;28;20487;-77
2023/10/18 02:36:05;;;;;;;1.50;1.20;;;7.60;98.20;;;;;;4990555;28;20470;-76
2023/10/18 02:38:32;;;;;;;1.50;1.20;;;7.60;98.20;;;;;;5017557;28;20472;-76
2023/10/18 02:41:01;;;;;;;1.50;1.30;;;7.60;98.20;;;;;;4999874;28;20472;-77
2023/10/18 02:43:29;;;;;;;1.50;1.20;;;7.50;98.20;;;;;;5014684;28;20492;-77
2023/10/18 02:45:57;;;;;;;1.50;1.20;;;7.50;98.20;;;;;;4998692;28;20471;-77
2023/10/18 02:48:24;;;;;;;1.50;1.20;;;7.60;98.20;;;;;;5007397;28;20461;-77
2023/10/18 02:50:52;;;;;;;1.50;1.30;;;7.50;98.20;;;;;;4998126;28;20471;-77
2023/10/18 02:53:22;;;;;;;1.50;1.20;;;7.50;98.20;;;;;;5013408;28;20892;-77
2023/10/18 02:55:55;;;;;;;1.50;1.30;;;7.60;98.20;;;;;;4993043;28;20465;-77
2023/10/18 02:58:27;;;;;;;1.60;1.40;;;7.50;98.20;;;;;;5020938;28;20860;-77
2023/10/18 03:01:02;;;;;;;1.53;1.20;;;7.50;98.20;;;;;;4990201;28;20465;-77
2023/10/18 03:03:30;;;;;;;1.50;1.20;;;7.50;98.20;;;;;;5018837;28;20479;-77
2023/10/18 03:05:58;;;;;;;1.53;1.20;;;7.50;98.20;;;;;;4994580;28;20556;-77
2023/10/18 03:08:28;;;;;;;1.50;1.20;;;7.50;98.20;;;;;;5013250;28;20962;-75
2023/10/18 03:10:55;;;;;;;1.50;1.20;;;7.50;98.20;;;;;;4998951;28;20467;-77
2023/10/18 03:13:23;;;;;;;1.53;1.20;;;7.50;98.20;;;;;;5017798;28;20865;-77
2023/10/18 03:16:06;;;;;;;1.53;1.30;;;7.50;98.20;;;;;;4998424;28;20466;-77
2023/10/18 03:18:34;;;;;;;1.50;1.30;;;7.50;98.20;;;;;;5009578;28;20491;-77
2023/10/18 03:21:05;;;;;;;1.50;1.20;;;7.50;98.20;;;;;;4998575;28;21021;-77
2023/10/18 03:23:32;;;;;;;1.50;1.20;;;7.50;98.20;;;;;;5010598;28;20481;-77
2023/10/18 03:26:01;;;;;;;1.50;1.27;;;7.50;98.20;;;;;;4994789;28;20472;-76
2023/10/18 03:28:34;;;;;;;1.50;1.20;;;7.50;98.20;;;;;;5008509;28;20519;-76
2023/10/18 03:31:20;;;;;;;1.60;1.40;;;7.50;98.20;;;;;;4990886;28;20460;-76
2023/10/18 03:33:48;;;;;;;1.50;1.30;;;7.50;98.20;;;;;;5009065;28;20575;-77
2023/10/18 03:36:20;;;;;;;1.53;1.30;;;7.50;98.20;;;;;;4995123;28;20911;-77
2023/10/18 03:38:53;;;;;;;1.50;1.30;;;7.50;98.20;;;;;;5015281;28;20556;-77
2023/10/18 03:41:20;;;;;;;1.50;1.20;;;7.50;98.20;;;;;;4995199;28;20472;-76
2023/10/18 03:43:49;;;;;;;1.50;1.27;;;7.50;98.20;;;;;;5017375;28;20503;-77
2023/10/18 03:46:19;;;;;;;1.53;1.20;;;7.50;98.20;;;;;;4997549;28;20995;-77
2023/10/18 03:48:52;;;;;;;1.53;1.30;;;7.50;98.20;;;;;;5017888;28;20839;-75
2023/10/18 03:51:20;;;;;;;1.50;1.20;;;7.50;98.20;;;;;;4997458;28;20502;-74
2023/10/18 03:53:52;;;;;;;1.50;1.30;;;7.50;98.20;;;;;;5017587;28;20876;-75
2023/10/18 03:56:21;;;;;;;1.50;1.20;;;7.50;98.20;;;;;;4995326;28;20541;-75
2023/10/18 03:59:00;;;;;;;1.50;1.27;;;7.50;98.20;;;;;;5014508;28;20503;-75
2023/10/18 04:01:28;;;;;;;1.50;1.20;;;7.50;98.20;;;;;;4995798;28;20511;-77
2023/10/18 04:03:56;;;;;;;1.57;1.40;;;7.50;98.20;;;;;;5006610;28;20479;-77
2023/10/18 04:06:27;;;;;;;1.50;1.20;;;7.50;98.20;;;;;;4994302;28;20476;-77
2023/10/18 04:08:58;;;;;;;1.50;1.30;;;7.50;98.20;;;;;;5009984;28;20467;-76
2023/10/18 04:11:26;;;;;;;1.50;1.27;;;7.50;98.20;;;;;;5009031;28;20499;-77
2023/10/18 04:13:54;;;;;;;1.50;1.20;;;7.50;98.20;;;;;;5012259;28;21038;-76
2023/10/18 04:16:28;;;;;;;1.50;1.20;;;7.50;98.20;;;;;;4995422;28;20479;-76
2023/10/18 04:18:58;;;;;;;1.50;1.20;;;7.50;98.20;;;;;;5013141;28;20498;-76
2023/10/18 04:21:28;;;;;;;1.50;1.20;;;7.60;98.20;;;;;;4998602;28;20521;-76
2023/10/18 04:23:56;;;;;;;1.53;1.20;;;7.60;98.20;;;;;;5014029;28;20563;-75
2023/10/18 04:26:25;;;;;;;1.53;1.20;;;7.60;98.20;;;;;;4998017;28;21013;-75
2023/10/18 04:28:57;;;;;;;1.50;1.20;;;7.60;98.20;;;;;;5013986;28;20464;-76
2023/10/18 04:31:24;;;;;;;1.57;1.30;;;7.60;98.20;;;;;;4997871;28;20486;-76
2023/10/18 04:33:52;;;;;;;1.60;1.30;;;7.60;98.20;;;;;;5015338;28;20493;-76
2023/10/18 04:36:22;;;;;;;1.50;1.20;;;7.50;98.20;;;;;;4995028;28;20550;-76
2023/10/18 04:38:51;;;;;;;1.50;1.20;;;7.50;98.20;;;;;;5009987;28;20488;-76
2023/10/18 04:41:27;;;;;;;1.50;1.30;;;7.50;98.20;;;;;;4988393;28;20472;-76
2023/10/18 04:44:00;;;;;;;1.50;1.20;;;7.50;98.20;;;;;;5013688;28;20556;-76
2023/10/18 04:46:30;;;;;;;1.50;1.30;;;7.50;98.20;;;;;;4996578;28;20479;-75
2023/10/18 04:51:48;;;;;;;1.50;1.20;;;7.50;98.20;;;;;;4998613;28;21020;-76
2023/10/18 04:54:18;;;;;;;1.50;1.30;;;7.50;98.20;;;;;;5007324;28;20479;-76
2023/10/18 04:56:46;;;;;;;1.50;1.20;;;7.50;98.20;;;;;;5000824;28;20480;-76
2023/10/18 04:59:26;;;;;;;1.50;1.20;;;7.50;98.20;;;;;;5011557;28;21191;-76
2023/10/18 05:01:57;;;;;;;1.57;1.30;;;7.40;98.20;;;;;;4999248;28;20471;-75
2023/10/18 05:04:28;;;;;;;1.60;1.40;;;7.50;98.20;;;;;;5006853;28;20494;-77
2023/10/18 05:07:00;;;;;;;1.50;1.30;;;7.40;98.20;;;;;;5003048;28;20482;-75
2023/10/18 05:09:34;;;;;;;1.50;1.20;;;7.40;98.20;;;;;;5007918;28;20472;-76
2023/10/18 05:12:07;;;;;;;1.57;1.33;;;7.40;98.20;;;;;;5003224;28;20482;-76
2023/10/18 05:14:36;;;;;;;1.50;1.33;;;7.40;98.20;;;;;;5009125;28;20494;-76
2023/10/18 05:17:10;;;;;;;1.50;1.23;;;7.40;98.20;;;;;;5006825;28;21048;-76
2023/10/18 05:19:41;;;;;;;1.50;1.30;;;7.40;98.20;;;;;;5009282;28;20476;-76
2023/10/18 05:22:15;;;;;;;1.50;1.20;;;7.40;98.20;;;;;;5006920;28;20499;-75
2023/10/18 05:24:42;;;;;;;1.50;1.20;;;7.40;98.20;;;;;;5011864;28;20907;-77
2023/10/18 05:27:24;;;;;;;1.60;1.40;;;7.40;98.20;;;;;;5008217;28;20479;-74
2023/10/18 05:29:54;;;;;;;1.50;1.20;;;7.40;98.20;;;;;;5011207;28;20468;-75
2023/10/18 05:32:47;;;;;;;1.80;1.50;;;7.40;98.20;;;;;;5007942;28;20471;-76
2023/10/18 05:35:26;;;;;;;1.53;1.30;;;7.40;98.20;;;;;;5004434;28;20563;-76
2023/10/18 05:38:19;;;;;;;1.50;1.17;;;7.40;98.20;;;;;;5008640;28;20809;-75
2023/10/18 05:40:49;;;;;;;1.50;1.20;;;7.40;98.20;;;;;;5006023;28;20598;-76
2023/10/18 05:43:30;;;;;;;1.53;1.27;;;7.40;98.20;;;;;;4997045;28;20475;-75
2023/10/18 05:45:58;;;;;;;1.50;1.20;;;7.40;98.20;;;;;;4993461;28;20464;-74
2023/10/18 05:48:25;;;;;;;1.50;1.20;;;7.50;98.20;;;;;;5018979;28;20543;-75
2023/10/18 05:51:03;;;;;;;1.83;1.73;;;7.50;98.20;;;;;;4997853;28;20875;-73
2023/10/18 05:53:31;;;;;;;1.50;1.20;;;7.50;98.20;;;;;;5014665;28;20488;-74
2023/10/18 05:55:58;;;;;;;1.50;1.20;;;7.40;98.20;;;;;;4999132;28;20478;-76
2023/10/18 05:58:28;;;;;;;1.50;1.20;;;7.40;98.20;;;;;;5014544;28;20484;-75
2023/10/18 06:01:02;;;;;;;1.60;1.40;;;7.50;98.20;;;;;;4997914;28;20456;-76
2023/10/18 06:03:39;;;;;;;1.60;1.37;;;7.50;98.20;;;;;;5016759;28;20546;-77
2023/10/18 06:06:06;;;;;;;1.53;1.30;;;7.50;98.20;;;;;;4997675;28;20492;-77
2023/10/18 06:08:34;;;;;;;1.50;1.20;;;7.50;98.20;;;;;;5016587;28;20452;-77
2023/10/18 06:11:03;;;;;;;1.50;1.30;;;7.50;98.20;;;;;;4996780;28;20840;-77
2023/10/18 06:13:30;;;;;;;1.50;1.30;;;7.50;98.20;;;;;;5017916;28;20529;-77
2023/10/18 06:15:59;;;;;;;1.50;1.30;;;7.50;98.20;;;;;;4998816;28;20515;-77
2023/10/18 06:18:30;;;;;;;1.50;1.20;;;7.50;98.20;;;;;;5019522;28;20546;-77
2023/10/18 06:20:59;;;;;;;1.60;1.40;;;7.60;98.20;;;;;;4997404;28;20475;-77
2023/10/18 06:23:37;;;;;;;1.50;1.23;;;7.60;98.20;;;;;;5016246;28;20578;-77
2023/10/18 06:29:08;;;;;;;1.50;1.30;;;7.60;98.20;;;;;;4992592;28;20464;-77
2023/10/18 06:31:40;;;;;;;1.50;1.20;;;7.60;98.20;;;;;;5000221;28;20486;-77
2023/10/18 06:34:15;;;;;;;1.57;1.30;;;7.60;98.20;;;;;;5011712;28;20521;-77
2023/10/18 06:36:42;;;;;;;1.50;1.20;;;7.70;98.20;;;;;;4999026;28;20515;-76
2023/10/18 06:39:16;;;;;;;1.50;1.20;;;7.70;98.20;;;;;;5010306;28;20485;-77
2023/10/18 06:41:46;;;;;;;1.50;1.20;;;7.70;98.20;;;;;;4998402;28;20514;-77
2023/10/18 06:44:13;;;;;;;1.50;1.30;;;7.70;98.20;;;;;;5008715;28;20490;-76
2023/10/18 06:46:40;;;;;;;1.50;1.30;;;7.80;98.20;;;;;;4998687;28;20475;-76
2023/10/18 06:49:11;;;;;;;1.50;1.30;;;7.80;98.20;;;;;;5013639;28;20507;-77
2023/10/18 06:51:41;;;;;;;1.50;1.20;;;7.80;98.20;;;;;;4999776;28;20483;-76
2023/10/18 06:54:13;;;;;;;1.60;1.40;;;7.90;98.20;;;;;;5011970;28;20484;-76
2023/10/18 06:56:40;;;;;;;2.17;1.97;;;7.90;98.20;;;;;;4999105;28;20487;-76
2023/10/18 06:59:09;;;;;;;1.50;1.20;;;8.00;98.20;;;;;;5009669;28;20522;-76
2023/10/18 07:01:41;;;;;;;1.50;1.20;;;8.00;98.20;;;;;;4997817;28;20475;-77
2023/10/18 07:04:16;;;;;;;1.50;1.20;;;8.10;98.20;;;;;;5014960;28;20492;-76
2023/10/18 07:06:44;;;;;;;1.60;1.30;;;8.10;98.20;;;;;;5000264;28;20482;-76
2023/10/18 07:09:24;;;;;;;1.60;1.27;;;8.20;98.20;;;;;;5014466;28;20511;-76
2023/10/18 07:11:51;;;;;;;1.50;1.20;;;8.30;98.20;;;;;;5003061;28;20479;-77
2023/10/18 07:14:20;;;;;;;1.60;1.50;;;8.40;98.20;;;;;;5012768;28;20475;-77
2023/10/18 07:16:48;;;;;;;1.50;1.20;;;8.40;98.20;;;;;;5000869;28;20566;-77
2023/10/18 07:19:29;;;;;;;1.50;1.30;;;8.50;98.20;;;;;;5012403;28;20491;-76
2023/10/18 07:21:57;;;;;;;1.60;1.20;;;8.60;98.20;;;;;;5006163;28;20497;-76
2023/10/18 07:24:32;;;;;;;1.53;1.20;;;8.70;98.20;;;;;;5009314;28;20484;-76
2023/10/18 07:27:00;;;;;;;1.50;1.20;;;8.80;98.20;;;;;;5002767;28;20515;-77
2023/10/18 07:29:28;;;;;;;1.57;1.20;;;8.80;98.20;;;;;;5009428;28;20987;-77
2023/10/18 07:31:59;;;;;;;1.50;1.20;;;8.90;98.20;;;;;;5003033;28;20483;-77
2023/10/18 07:34:31;;;;;;;1.50;1.20;;;9.00;98.20;;;;;;5009382;28;20566;-76
2023/10/18 07:37:10;;;;;;;1.50;1.20;;;9.00;98.20;;;;;;5001204;28;20533;-76
2023/10/18 07:39:37;;;;;;;1.53;1.20;;;9.10;98.20;;;;;;5005554;28;20491;-77
2023/10/18 07:42:05;;;;;;;1.57;1.20;;;9.10;98.20;;;;;;5004369;28;21020;-77
2023/10/18 07:44:33;;;;;;;1.50;1.13;;;9.20;98.20;;;;;;5009986;28;20484;-77
2023/10/18 07:47:00;;;;;;;1.57;1.20;;;9.30;98.20;;;;;;5004122;28;20656;-76
2023/10/18 07:49:28;;;;;;;1.57;1.30;;;9.30;98.20;;;;;;5013083;28;20456;-76
2023/10/18 07:51:58;;;;;;;1.50;1.20;;;9.40;98.20;;;;;;5002223;28;20514;-77
2023/10/18 07:54:26;;;;;;;1.53;1.20;;;9.50;98.20;;;;;;5010515;28;21070;-76
2023/10/18 07:56:54;;;;;;;1.50;1.10;;;9.50;98.20;;;;;;5000859;28;20491;-76
2023/10/18 07:59:28;;;;;;;1.50;1.10;;;9.60;98.20;;;;;;5011023;28;20483;-77
2023/10/18 08:04:38;;;;;;;1.60;1.30;;;9.70;98.20;;;;;;5008166;28;20491;-76
2023/10/18 08:07:10;;;;;;;1.57;1.20;;;9.80;98.20;;;;;;5007408;28;20479;-77
2023/10/18 08:09:39;;;;;;;2.13;1.93;;;9.90;98.20;;;;;;5011472;28;20520;-75
2023/10/18 08:12:07;;;;;;;1.60;1.40;;;10.00;98.20;;;;;;5005144;28;20482;-77
2023/10/18 08:14:34;;;;;;;1.50;1.20;;;10.10;98.20;;;;;;5010656;28;20479;-76
2023/10/18 08:17:09;;;;;;;1.60;1.33;;;10.10;98.20;;;;;;5006699;28;20479;-76
2023/10/18 08:19:44;;;;;;;1.50;1.10;;;10.10;98.20;;;;;;5009714;28;20487;-77
2023/10/18 08:22:23;;;;;;;1.53;1.10;;;10.20;98.20;;;;;;5002782;28;20474;-77
2023/10/18 08:24:50;;;;;;;1.50;1.20;;;10.20;98.20;;;;;;5007689;28;20623;-77
2023/10/18 08:27:18;;;;;;;1.50;1.10;;;10.20;98.20;;;;;;5009112;28;20993;-76
2023/10/18 08:29:47;;;;;;;1.50;1.27;;;10.30;98.20;;;;;;5009095;28;21543;-77
2023/10/18 08:32:15;;;;;;;1.50;1.10;;;10.30;98.20;;;;;;5008029;28;20491;-77
2023/10/18 08:34:43;;;;;;;1.50;1.10;;;10.30;98.20;;;;;;5010320;28;20934;-78
2023/10/18 08:37:11;;;;;;;2.80;2.60;;;10.40;98.20;;;;;;5006269;28;20508;-75
2023/10/18 08:39:40;;;;;;;1.50;1.20;;;10.50;98.20;;;;;;5012421;28;20495;-77
2023/10/18 08:42:10;;;;;;;1.50;1.20;;;10.60;98.20;;;;;;5009236;28;21026;-77
2023/10/18 08:44:39;;;;;;;1.50;1.20;;;10.70;98.20;;;;;;5011376;28;20480;-77
2023/10/18 08:47:12;;;;;;;1.50;1.10;;;10.80;98.20;;;;;;5008449;28;20493;-77
2023/10/18 08:49:50;;;;;;;1.50;1.10;;;10.90;98.20;;;;;;5015878;28;20462;-77
2023/10/18 08:52:20;;;;;;;2.50;2.30;;;11.00;98.20;;;;;;5012007;28;20558;-77
2023/10/18 08:54:48;;;;;;;1.50;1.10;;;11.10;98.20;;;;;;5011847;28;20492;-77
2023/10/18 08:57:24;;;;;;;1.50;1.10;;;11.10;98.20;;;;;;5013372;28;21033;-78
2023/10/18 08:59:51;;;;;;;1.53;1.10;;;11.10;98.20;;;;;;5014398;28;20490;-77
2023/10/18 09:02:18;;;;;;;1.50;1.00;;;11.20;98.20;;;;;;5011795;28;20614;-78
2023/10/18 09:04:51;;;;;;;1.50;1.10;;;11.20;98.20;;;;;;5008851;28;20550;-77
2023/10/18 09:07:21;;;;;;;1.50;1.10;;;11.30;98.20;;;;;;5007945;28;20487;-78
2023/10/18 09:09:55;;;;;;;1.60;1.30;;;11.40;98.20;;;;;;5011537;28;20468;-78
2023/10/18 09:12:33;;;;;;;1.50;1.10;;;11.50;98.20;;;;;;5010229;28;20474;-78
2023/10/18 09:15:25;;;;;;;1.60;1.20;;;11.60;98.20;;;;;;5012260;28;20526;-78
2023/10/18 09:17:47;;;;;;;1.60;1.40;;;11.80;98.20;;;;;;5011634;28;20812;-78
2023/10/18 09:20:16;;;;;;;1.50;1.10;;;11.90;98.20;;;;;;5009833;28;20508;-78
2023/10/18 09:22:45;;;;;;;1.50;1.00;;;12.00;98.10;;;;;;5013477;28;20588;-78
2023/10/18 09:25:13;;;;;;;1.77;1.50;;;12.10;98.00;;;;;;5011976;28;20495;-77
2023/10/18 09:27:40;;;;;;;1.50;1.00;;;12.10;97.60;;;;;;5010576;28;20566;-78
2023/10/18 09:30:13;;;;;;;1.50;1.17;;;12.30;97.40;;;;;;5012205;28;20462;-77
2023/10/18 09:32:40;;;;;;;1.50;1.00;;;12.40;97.20;;;;;;5011084;28;20565;-77
2023/10/18 09:35:08;;;;;;;1.50;1.10;;;12.50;97.10;;;;;;5009814;28;20527;-78
2023/10/18 09:37:39;;;;;;;1.50;1.00;;;12.70;97.00;;;;;;5013081;28;20475;-77
2023/10/18 09:40:11;;;;;;;1.50;1.00;;;12.90;96.20;;;;;;5012758;28;20588;-76
2023/10/18 09:42:38;;;;;;;1.50;1.00;;;13.00;95.20;;;;;;5010910;28;20483;-77
2023/10/18 09:45:08;;;;;;;1.50;1.03;;;13.10;95.20;;;;;;5010354;28;20547;-77
2023/10/18 09:47:36;;;;;;;1.50;1.10;;;13.30;94.30;;;;;;5010827;28;20491;-76
2023/10/18 09:50:07;;;;;;;1.50;1.10;;;13.30;93.80;;;;;;5012141;28;20499;-77
2023/10/18 09:52:47;;;;;;;1.50;1.00;;;13.20;93.80;;;;;;5013425;28;20479;-79
2023/10/18 09:55:20;;;;;;;1.50;1.00;;;13.30;94.20;;;;;;5010398;28;20514;-75
2023/10/18 09:57:59;;;;;;;1.60;1.30;;;13.30;93.60;;;;;;5011660;28;20496;-77
2023/10/18 10:00:29;;;;;;;1.50;1.00;;;13.40;93.30;;;;;;5009782;28;20511;-78
2023/10/18 10:02:58;;;;;;;1.50;1.00;;;13.60;94.00;;;;;;5011345;28;20536;-79
2023/10/18 10:05:26;;;;;;;1.50;1.00;;;13.80;93.00;;;;;;5010330;28;20467;-78
2023/10/18 10:07:56;;;;;;;1.50;1.03;;;13.90;92.50;;;;;;5011051;28;20782;-74
2023/10/18 10:10:43;;;;;;;2.20;1.47;;;14.00;92.30;;;;;;5011406;28;20467;-76
2023/10/18 10:13:18;;;;;;;1.50;1.00;;;14.10;91.60;;;;;;5010038;28;20592;-77
2023/10/18 10:15:54;;;;;;;1.50;0.90;;;14.20;91.60;;;;;;5005928;28;20542;-77
2023/10/18 10:18:27;;;;;;;1.60;1.30;;;14.30;91.60;;;;;;4995551;28;20483;-77
2023/10/18 10:20:57;;;;;;;1.50;1.00;;;14.40;90.60;;;;;;5001674;28;20468;-77
2023/10/18 10:23:25;;;;;;;1.50;1.00;;;14.50;90.30;;;;;;5023035;28;20571;-77
2023/10/18 10:26:10;;;;;;;1.50;1.00;;;14.60;90.80;;;;;;4999085;28;20849;-77
2023/10/18 10:31:48;;;;;;;1.70;1.53;;;14.80;89.80;;;;;;4998433;28;20470;-77
2023/10/18 10:34:19;;;;;;;1.50;1.10;;;14.90;89.80;;;;;;5013315;28;20484;-78
2023/10/18 10:36:47;;;;;;;1.50;1.00;;;14.90;88.70;;;;;;5000981;28;20609;-77
2023/10/18 10:39:30;;;;;;;1.50;1.10;;;14.90;88.70;;;;;;5016284;28;20488;-77
2023/10/18 10:42:08;;;;;;;1.50;1.00;;;14.90;89.00;;;;;;5006720;28;20564;-77
2023/10/18 10:44:54;;;;;;;1.50;0.90;;;14.90;88.70;;;;;;5009828;28;20566;-78
2023/10/18 10:47:30;;;;;;;1.50;1.00;;;14.90;88.30;;;;;;5005893;28;20764;-77
2023/10/18 10:50:01;;;;;;;1.50;1.00;;;14.80;88.50;;;;;;5008981;28;20459;-77
2023/10/18 10:52:32;;;;;;;1.50;1.00;;;14.80;88.90;;;;;;5008293;28;20494;-77
2023/10/18 10:55:17;;;;;;;1.50;1.00;;;14.80;89.10;;;;;;5007158;28;20547;-77
2023/10/18 10:57:45;;;;;;;1.50;1.00;;;14.90;89.50;;;;;;5004288;28;20482;-76
2023/10/18 11:00:36;;;;;;;1.50;1.00;;;15.00;88.40;;;;;;5005680;28;20503;-77
2023/10/18 11:03:20;;;;;;;1.47;1.00;;;15.00;88.80;;;;;;5005547;28;20491;-78
2023/10/18 11:05:51;;;;;;;1.50;1.00;;;15.10;88.40;;;;;;4992058;28;21099;-77
2023/10/18 11:08:19;;;;;;;1.47;0.90;;;15.10;89.20;;;;;;5018403;28;20476;-77
2023/10/18 11:10:47;;;;;;;1.50;1.00;;;15.20;87.80;;;;;;5001325;28;20559;-78
2023/10/18 11:13:22;;;;;;;1.50;1.00;;;15.30;88.40;;;;;;5020536;28;20487;-77
2023/10/18 11:15:51;;;;;;;1.50;1.00;;;15.40;88.40;;;;;;4995232;28;20463;-76
2023/10/18 11:18:20;;;;;;;1.50;1.00;;;15.50;87.00;;;;;;5019953;28;20460;-77
2023/10/18 11:21:05;;;;;;;1.43;0.97;;;15.60;87.10;;;;;;4993866;28;20488;-78
2023/10/18 11:23:33;;;;;;;1.47;0.90;;;15.70;87.10;;;;;;5015315;28;20515;-78
2023/10/18 11:26:08;;;;;;;1.50;1.00;;;15.90;87.60;;;;;;4995397;28;20452;-77
2023/10/18 11:28:37;;;;;;;1.50;0.90;;;15.90;86.90;;;;;;5009622;28;20468;-77
2023/10/18 11:31:04;;;;;;;1.50;0.90;;;15.90;87.00;;;;;;4996228;28;20534;-77
2023/10/18 11:33:46;;;;;;;1.80;1.50;;;15.90;87.00;;;;;;5013933;28;20555;-77
2023/10/18 11:36:18;;;;;;;1.50;1.00;;;16.00;86.50;;;;;;4995104;28;20503;-78
2023/10/18 11:39:07;;;;;;;1.47;1.00;;;15.90;86.10;;;;;;5010497;28;20527;-77
2023/10/18 11:41:36;;;;;;;1.47;0.90;;;16.00;86.20;;;;;;4993251;28;20475;-76
2023/10/18 11:44:06;;;;;;;1.50;1.00;;;16.00;86.60;;;;;;5013642;28;20488;-76
2023/10/18 11:46:46;;;;;;;1.50;1.00;;;16.10;86.80;;;;;;4998264;28;20479;-76
2023/10/18 11:49:13;;;;;;;1.50;1.00;;;16.10;86.30;;;;;;5011924;28;20673;-76
2023/10/18 11:51:43;;;;;;;1.50;1.20;;;16.00;86.20;;;;;;5000125;28;21018;-77
2023/10/18 11:54:12;;;;;;;1.50;0.90;;;16.10;86.10;;;;;;5011209;28;20480;-77
2023/10/18 11:56:40;;;;;;;1.47;0.90;;;16.10;86.10;;;;;;4999720;28;20582;-77
2023/10/18 11:59:07;;;;;;;1.50;1.00;;;16.10;86.30;;;;;;5010268;28;20823;-76
2023/10/18 12:01:34;;;;;;;1.43;1.00;;;16.10;85.90;;;;;;5000297;28;20579;-77
2023/10/18 12:04:03;;;;;;;1.50;1.00;;;16.10;85.20;;;;;;5012872;28;20508;-78
2023/10/18 12:06:31;;;;;;;1.50;1.00;;;16.10;85.30;;;;;;4994907;28;20921;-77
2023/10/18 12:11:44;;;;;;;1.50;1.00;;;15.90;85.90;;;;;;4999615;28;21004;-77
2023/10/18 12:14:10;;;;;;;1.50;1.17;;;15.90;85.90;;;;;;5013092;28;21463;-77
2023/10/18 12:16:37;;;;;;;1.47;0.90;;;15.90;85.80;;;;;;4996413;28;20486;-78
2023/10/18 12:19:06;;;;;;;1.50;1.00;;;15.90;85.90;;;;;;5011300;28;20567;-78
2023/10/18 12:22:19;;;;;;;1.50;1.10;;;15.90;86.40;;;;;;5002503;28;20479;-79
2023/10/18 12:24:46;;;;;;;1.50;1.17;;;16.00;86.80;;;;;;4992075;28;21852;-75
2023/10/18 12:27:21;;;;;;;1.47;1.00;;;16.30;86.50;;;;;;5002500;28;20856;-75
2023/10/18 12:29:49;;;;;;;1.50;1.10;;;16.40;86.00;;;;;;5004161;28;20510;-75
2023/10/18 12:32:26;;;;;;;1.50;1.20;;;16.60;85.00;;;;;;5002567;28;20846;-75
2023/10/18 12:34:56;;;;;;;1.50;1.00;;;16.60;84.70;;;;;;5001814;28;21134;-76
2023/10/18 12:37:24;;;;;;;1.47;1.00;;;16.70;84.10;;;;;;5007948;28;20494;-75
2023/10/18 12:39:51;;;;;;;1.47;0.90;;;16.70;83.40;;;;;;5004852;28;21049;-76
2023/10/18 12:42:21;;;;;;;2.20;1.77;;;16.80;84.10;;;;;;5001733;28;20585;-75
2023/10/18 12:44:48;;;;;;;1.47;0.90;;;16.90;84.60;;;;;;5003199;28;20499;-76
2023/10/18 12:47:19;;;;;;;1.43;1.00;;;17.00;84.90;;;;;;5001846;28;20483;-76
2023/10/18 12:49:50;;;;;;;1.43;0.90;;;17.00;83.70;;;;;;5002285;28;20465;-76
2023/10/18 12:55:05;;;;;;;1.50;1.07;;;16.90;84.40;;;;;;5002577;28;20463;-77
2023/10/18 12:57:33;;;;;;;1.43;0.90;;;17.00;84.10;;;;;;5002412;28;20487;-76
2023/10/18 13:00:13;;;;;;;1.50;1.10;;;17.00;84.50;;;;;;5001310;28;20495;-77
2023/10/18 13:02:51;;;;;;;1.50;0.90;;;17.00;83.40;;;;;;5000732;28;20486;-76
2023/10/18 13:05:19;;;;;;;1.50;1.00;;;17.00;83.10;;;;;;4999517;28;20480;-76
2023/10/18 13:07:52;;;;;;;2.87;2.13;;;17.00;83.90;;;;;;5002708;28;20487;-75
2023/10/18 13:10:29;;;;;;;1.43;0.90;;;17.00;84.40;;;;;;5002579;28;20456;-75
2023/10/18 13:12:56;;;;;;;1.47;0.90;;;17.00;83.90;;;;;;5006205;28;21040;-75
2023/10/18 13:15:23;;;;;;;1.50;1.00;;;17.00;84.90;;;;;;5000055;28;20584;-76
2023/10/18 13:17:51;;;;;;;1.47;0.90;;;17.10;84.40;;;;;;5002821;28;20471;-76
2023/10/18 13:20:24;;;;;;;1.47;0.90;;;17.10;84.40;;;;;;5002375;28;21002;-75
2023/10/18 13:22:55;;;;;;;1.50;1.00;;;17.30;84.90;;;;;;5004406;28;20487;-78
2023/10/18 13:25:26;;;;;;;1.50;1.00;;;17.30;84.10;;;;;;4999865;28;21020;-76
2023/10/18 13:27:54;;;;;;;1.50;1.00;;;17.20;83.40;;;;;;5001459;28;20622;-76
2023/10/18 13:30:39;;;;;;;1.50;0.97;;;17.20;83.00;;;;;;5001837;28;20464;-75
2023/10/18 13:33:11;;;;;;;1.60;1.40;;;17.10;83.50;;;;;;5003544;28;20491;-76